createdAt,value
2022-10-18T00:00:07.132Z,101392.44
2022-10-18T00:02:33.981Z,101383.81
2022-10-18T00:05:00.916Z,101382.91
2022-10-18T00:07:27.681Z,101374.47
2022-10-18T00:09:54.477Z,101374.34
2022-10-18T00:12:21.247Z,101377.00
2022-10-18T00:14:51.310Z,101375.13
2022-10-18T00:17:18.444Z,101373.69
2022-10-18T00:19:46.682Z,101374.91
2022-10-18T00:22:13.388Z,101380.25
2022-10-18T00:24:40.076Z,101374.72
2022-10-18T00:27:06.924Z,101383.25
2022-10-18T00:29:33.640Z,101382.28
2022-10-18T00:32:00.350Z,101382.41
2022-10-18T00:34:27.152Z,101365.38
2022-10-18T00:36:55.172Z,101376.97
2022-10-18T00:39:23.008Z,101373.00
2022-10-18T00:41:50.512Z,101373.22
2022-10-18T00:44:17.166Z,101367.97
2022-10-18T00:46:47.095Z,101349.63
2022-10-18T00:49:23.523Z,101357.38
2022-10-18T00:52:10.594Z,101337.91
2022-10-18T00:54:39.556Z,101358.13
2022-10-18T00:57:07.186Z,101358.44
2022-10-18T00:59:35.154Z,101354.50
2022-10-18T01:02:02.638Z,101348.28
2022-10-18T01:04:29.471Z,101358.47
2022-10-18T01:07:17.366Z,101359.28
2022-10-18T01:09:59.701Z,101349.16
2022-10-18T01:12:44.909Z,101353.59
2022-10-18T01:15:29.491Z,101355.13
2022-10-18T01:18:14.511Z,101354.34
2022-10-18T01:21:01.645Z,101346.16
2022-10-18T01:23:52.129Z,101339.66
2022-10-18T01:26:50.830Z,101335.59
2022-10-18T01:29:39.042Z,101332.94
2022-10-18T01:32:15.658Z,101334.19
2022-10-18T01:34:45.980Z,101336.25
2022-10-18T01:37:17.405Z,101340.03
2022-10-18T01:39:46.716Z,101309.72
2022-10-18T01:42:19.205Z,101315.78
2022-10-18T01:44:48.308Z,101326.03
2022-10-18T01:47:15.784Z,101311.78
2022-10-18T01:49:42.793Z,101300.00
2022-10-18T01:52:14.407Z,101319.06
2022-10-18T01:54:45.172Z,101323.25
2022-10-18T01:57:36.845Z,101313.00
2022-10-18T02:00:10.601Z,101324.34
2022-10-18T02:02:55.284Z,101323.91
2022-10-18T02:05:31.136Z,101321.09
2022-10-18T02:08:22.143Z,101317.84
2022-10-18T02:11:06.364Z,101317.47
2022-10-18T02:13:38.833Z,101314.69
2022-10-18T02:16:10.607Z,101319.81
2022-10-18T02:18:42.247Z,101313.84
2022-10-18T02:21:13.725Z,101319.50
2022-10-18T02:23:40.608Z,101318.16
2022-10-18T02:26:07.567Z,101308.16
2022-10-18T02:28:34.639Z,101314.81
2022-10-18T02:31:06.745Z,101323.69
2022-10-18T02:33:46.310Z,101318.97
2022-10-18T02:36:21.382Z,101251.84
2022-10-18T02:38:53.644Z,101313.44
2022-10-18T02:41:26.221Z,101301.88
2022-10-18T02:43:54.545Z,101314.19
2022-10-18T02:46:21.386Z,101306.56
2022-10-18T02:48:48.173Z,101315.41
2022-10-18T02:51:15.015Z,101319.81
2022-10-18T02:53:42.075Z,101310.31
2022-10-18T02:56:09.147Z,101288.38
2022-10-18T02:58:35.879Z,101323.91
2022-10-18T03:01:02.792Z,101319.16
2022-10-18T03:03:29.622Z,101325.59
2022-10-18T03:05:56.655Z,101307.19
2022-10-18T03:08:23.485Z,101308.41
2022-10-18T03:10:50.206Z,101329.06
2022-10-18T03:13:16.998Z,101325.97
2022-10-18T03:15:43.958Z,101329.59
2022-10-18T03:18:10.893Z,101330.91
2022-10-18T03:20:37.691Z,101331.25
2022-10-18T03:23:04.470Z,101332.91
2022-10-18T03:25:31.151Z,101340.34
2022-10-18T03:27:57.842Z,101341.41
2022-10-18T03:30:24.779Z,101310.66
2022-10-18T03:32:51.590Z,101332.19
2022-10-18T03:35:18.555Z,101318.09
2022-10-18T03:37:45.294Z,101327.84
2022-10-18T03:40:12.223Z,101326.31
2022-10-18T03:42:39.193Z,101329.09
2022-10-18T03:45:06.411Z,101320.19
2022-10-18T03:47:33.182Z,101330.59
2022-10-18T03:49:59.976Z,101333.56
2022-10-18T03:52:26.640Z,101331.94
2022-10-18T03:54:53.300Z,101309.22
2022-10-18T03:57:19.956Z,101333.03
2022-10-18T03:59:48.787Z,101325.00
2022-10-18T04:02:15.479Z,101317.91
2022-10-18T04:04:42.203Z,101331.16
2022-10-18T04:07:08.969Z,101308.22
2022-10-18T04:09:35.659Z,101332.94
2022-10-18T04:12:02.322Z,101330.16
2022-10-18T04:14:29.085Z,101333.25
2022-10-18T04:16:55.735Z,101321.56
2022-10-18T04:19:22.460Z,101326.97
2022-10-18T04:21:49.171Z,101317.25
2022-10-18T04:24:18.087Z,101310.00
2022-10-18T04:26:44.834Z,101317.25
2022-10-18T04:29:11.886Z,101311.28
2022-10-18T04:31:38.677Z,101315.44
2022-10-18T04:34:05.504Z,101318.66
2022-10-18T04:36:32.212Z,101307.81
2022-10-18T04:38:58.829Z,101310.84
2022-10-18T04:41:25.629Z,101316.72
2022-10-18T04:43:52.405Z,101316.44
2022-10-18T04:46:19.272Z,101299.63
2022-10-18T04:48:45.996Z,101298.09
2022-10-18T04:51:12.765Z,101311.84
2022-10-18T04:53:39.486Z,101297.53
2022-10-18T04:56:06.584Z,101309.34
2022-10-18T04:58:33.249Z,101311.94
2022-10-18T05:00:59.964Z,101310.38
2022-10-18T05:03:26.684Z,101317.91
2022-10-18T05:06:01.658Z,101303.16
2022-10-18T05:08:29.587Z,101321.88
2022-10-18T05:10:56.370Z,101313.09
2022-10-18T05:13:23.135Z,101320.31
2022-10-18T05:15:50.223Z,101318.56
2022-10-18T05:18:16.973Z,101316.13
2022-10-18T05:20:43.856Z,101322.78
2022-10-18T05:23:10.997Z,101326.91
2022-10-18T05:25:44.103Z,101326.19
2022-10-18T05:28:34.008Z,101328.19
2022-10-18T05:31:02.598Z,101336.28
2022-10-18T05:33:30.130Z,101317.88
2022-10-18T05:35:56.857Z,101329.53
2022-10-18T05:38:23.745Z,101332.16
2022-10-18T05:40:50.525Z,101331.47
2022-10-18T05:43:20.207Z,101335.44
2022-10-18T05:45:51.261Z,101333.28
2022-10-18T05:48:18.771Z,101328.81
2022-10-18T05:50:45.546Z,101336.44
2022-10-18T05:53:18.508Z,101319.66
2022-10-18T05:56:02.989Z,101328.53
2022-10-18T05:58:29.790Z,101342.81
2022-10-18T06:00:59.960Z,101347.75
2022-10-18T06:03:27.844Z,101354.16
2022-10-18T06:06:03.133Z,101345.47
2022-10-18T06:08:30.203Z,101357.38
2022-10-18T06:10:57.009Z,101353.25
2022-10-18T06:13:24.092Z,101356.59
2022-10-18T06:15:50.895Z,101358.25
2022-10-18T06:18:17.597Z,101354.47
2022-10-18T06:20:44.411Z,101357.06
2022-10-18T06:23:11.211Z,101344.34
2022-10-18T06:25:37.890Z,101351.75
2022-10-18T06:28:07.876Z,101347.22
2022-10-18T06:30:37.212Z,101336.47
2022-10-18T06:33:04.061Z,101340.16
2022-10-18T06:35:30.792Z,101339.13
2022-10-18T06:37:57.936Z,101345.09
2022-10-18T06:40:24.751Z,101330.06
2022-10-18T06:43:00.580Z,101321.75
2022-10-18T06:45:37.300Z,101320.56
2022-10-18T06:48:04.140Z,101312.28
2022-10-18T06:50:30.922Z,101321.56
2022-10-18T06:52:57.584Z,101322.59
2022-10-18T06:55:24.280Z,101309.97
2022-10-18T06:57:50.916Z,101323.88
2022-10-18T07:00:17.633Z,101325.50
2022-10-18T07:02:44.473Z,101307.69
2022-10-18T07:05:11.671Z,101313.03
2022-10-18T07:07:39.840Z,101319.22
2022-10-18T07:10:07.328Z,101310.56
2022-10-18T07:12:34.465Z,101312.88
2022-10-18T07:15:03.474Z,101318.97
2022-10-18T07:17:33.912Z,101304.63
2022-10-18T07:20:00.921Z,101307.38
2022-10-18T07:22:30.282Z,101305.97
2022-10-18T07:24:57.249Z,101297.09
2022-10-18T07:27:23.991Z,101299.41
2022-10-18T07:29:50.723Z,101296.44
2022-10-18T07:32:17.471Z,101284.16
2022-10-18T07:34:44.219Z,101288.63
2022-10-18T07:37:10.863Z,101288.50
2022-10-18T07:39:37.531Z,101299.84
2022-10-18T07:42:04.279Z,101295.09
2022-10-18T07:44:31.050Z,101285.41
2022-10-18T07:46:57.720Z,101271.06
2022-10-18T07:49:24.466Z,101286.63
2022-10-18T07:51:51.208Z,101268.91
2022-10-18T07:54:18.076Z,101273.78
2022-10-18T07:56:44.724Z,101270.88
2022-10-18T07:59:11.726Z,101276.78
2022-10-18T08:01:38.650Z,101244.13
2022-10-18T08:04:07.982Z,101262.31
2022-10-18T08:06:36.759Z,101262.72
2022-10-18T08:09:04.171Z,101262.66
2022-10-18T08:11:31.026Z,101267.50
2022-10-18T08:13:57.699Z,101255.50
2022-10-18T08:16:27.491Z,101253.72
2022-10-18T08:18:57.307Z,101248.78
2022-10-18T08:21:24.049Z,101240.47
2022-10-18T08:23:51.013Z,101233.31
2022-10-18T08:26:19.935Z,101237.75
2022-10-18T08:28:54.079Z,101230.16
2022-10-18T08:31:25.696Z,101238.91
2022-10-18T08:33:52.512Z,101236.84
2022-10-18T08:36:19.560Z,101232.53
2022-10-18T08:38:46.462Z,101226.50
2022-10-18T08:41:19.011Z,101226.13
2022-10-18T08:44:26.981Z,101229.69
2022-10-18T08:47:01.178Z,101218.59
2022-10-18T08:49:47.282Z,101224.03
2022-10-18T08:52:23.016Z,101212.34
2022-10-18T08:55:10.069Z,101218.09
2022-10-18T08:57:36.803Z,101209.91
2022-10-18T09:00:25.275Z,101214.72
2022-10-18T09:02:54.955Z,101203.03
2022-10-18T09:05:49.289Z,101205.50
2022-10-18T09:08:38.777Z,101206.00
2022-10-18T09:11:33.389Z,101191.88
2022-10-18T09:14:30.980Z,101200.19
2022-10-18T09:17:23.501Z,101194.06
2022-10-18T09:20:03.419Z,101192.31
2022-10-18T09:22:50.737Z,101178.06
2022-10-18T09:25:23.228Z,101187.81
2022-10-18T09:28:01.215Z,101190.56
2022-10-18T09:30:46.251Z,101175.88
2022-10-18T09:33:36.161Z,101174.94
2022-10-18T09:36:14.043Z,101160.59
2022-10-18T09:38:45.903Z,101161.13
2022-10-18T09:41:23.302Z,101159.47
2022-10-18T09:43:56.248Z,101155.41
2022-10-18T09:46:29.318Z,101142.94
2022-10-18T09:49:01.899Z,101149.72
2022-10-18T09:51:37.375Z,101151.13
2022-10-18T09:54:26.940Z,101141.31
2022-10-18T09:57:10.397Z,101141.69
2022-10-18T09:59:45.940Z,101134.47
2022-10-18T10:02:15.574Z,101128.13
2022-10-18T10:04:42.908Z,101123.03
2022-10-18T10:07:14.302Z,101103.97
2022-10-18T10:09:46.420Z,101122.66
2022-10-18T10:12:33.861Z,101101.31
2022-10-18T10:15:31.233Z,101105.97
2022-10-18T10:18:04.878Z,101094.47
2022-10-18T10:20:43.919Z,101091.69
2022-10-18T10:23:38.262Z,101092.13
2022-10-18T10:26:28.023Z,101072.72
2022-10-18T10:28:55.080Z,101073.13
2022-10-18T10:31:25.187Z,101075.25
2022-10-18T10:34:14.682Z,101069.03
2022-10-18T10:36:53.397Z,101065.25
2022-10-18T10:39:22.712Z,101051.38
2022-10-18T10:42:00.519Z,101049.38
2022-10-18T10:44:31.105Z,101042.19
2022-10-18T10:46:58.820Z,101041.84
2022-10-18T10:49:46.684Z,101042.06
2022-10-18T10:52:36.619Z,101023.06
2022-10-18T10:55:23.641Z,101031.59
2022-10-18T10:57:52.368Z,101028.75
2022-10-18T11:00:41.285Z,100992.00
2022-10-18T11:03:27.868Z,101006.38
2022-10-18T11:05:58.004Z,101003.44
2022-10-18T11:08:28.630Z,101004.91
2022-10-18T11:11:05.095Z,100981.91
2022-10-18T11:13:56.962Z,100993.53
2022-10-18T11:17:20.925Z,100985.28
2022-10-18T11:20:11.843Z,100988.09
2022-10-18T11:22:49.420Z,100976.91
2022-10-18T11:25:18.018Z,100961.16
2022-10-18T11:27:44.614Z,100967.72
2022-10-18T11:30:48.576Z,100964.38
2022-10-18T11:33:56.311Z,100949.00
2022-10-18T11:37:02.274Z,100945.53
2022-10-18T11:39:41.743Z,100953.28
2022-10-18T11:42:23.663Z,100932.09
2022-10-18T11:45:02.278Z,100933.41
2022-10-18T11:47:45.152Z,100931.84
2022-10-18T11:50:37.749Z,100932.94
2022-10-18T11:53:26.653Z,100923.91
2022-10-18T11:56:14.997Z,100929.84
2022-10-18T11:59:12.213Z,100923.16
2022-10-18T12:01:54.171Z,100922.34
2022-10-18T12:04:31.198Z,100919.88
2022-10-18T12:06:59.139Z,100915.84
2022-10-18T12:09:41.881Z,100912.72
2022-10-18T12:12:32.856Z,100907.59
2022-10-18T12:15:03.566Z,100912.22
2022-10-18T12:17:46.370Z,100889.50
2022-10-18T12:20:34.019Z,100905.84
2022-10-18T12:23:16.045Z,100903.66
2022-10-18T12:25:49.420Z,100899.25
2022-10-18T12:28:28.231Z,100900.34
2022-10-18T12:31:08.817Z,100816.31
2022-10-18T12:33:39.905Z,100886.94
2022-10-18T12:36:42.003Z,100889.22
2022-10-18T12:39:32.284Z,100877.47
2022-10-18T12:42:25.362Z,100882.28
2022-10-18T12:45:03.914Z,100886.31
2022-10-18T12:47:31.513Z,100884.44
2022-10-18T12:50:01.572Z,100871.41
2022-10-18T12:52:30.543Z,100866.16
2022-10-18T12:55:08.354Z,100870.00
2022-10-18T12:57:55.206Z,100867.31
2022-10-18T13:00:30.973Z,100864.34
2022-10-18T13:03:12.395Z,100856.94
2022-10-18T13:05:53.918Z,100852.97
2022-10-18T13:08:27.527Z,100855.63
2022-10-18T13:11:09.950Z,100850.72
2022-10-18T13:14:13.883Z,100849.53
2022-10-18T13:17:05.165Z,100859.91
2022-10-18T13:20:07.729Z,100842.38
2022-10-18T13:23:02.497Z,100842.81
2022-10-18T13:25:48.598Z,100820.16
2022-10-18T13:28:24.463Z,100761.81
2022-10-18T13:30:53.837Z,100832.88
2022-10-18T13:33:30.795Z,100826.22
2022-10-18T13:36:00.714Z,100823.16
2022-10-18T13:38:48.149Z,100824.56
2022-10-18T13:43:54.141Z,100821.06
2022-10-18T13:46:42.684Z,100817.56
2022-10-18T13:49:36.952Z,100822.94
2022-10-18T13:52:21.830Z,100807.22
2022-10-18T13:55:03.626Z,100802.25
2022-10-18T13:58:03.248Z,100806.47
2022-10-18T14:01:02.403Z,100808.03
2022-10-18T14:04:06.916Z,100803.09
2022-10-18T14:06:43.055Z,100793.25
2022-10-18T14:09:44.513Z,100795.22
2022-10-18T14:12:31.081Z,100799.59
2022-10-18T14:15:16.278Z,100795.13
2022-10-18T14:17:58.131Z,100781.72
2022-10-18T14:20:49.487Z,100783.25
2022-10-18T14:23:31.434Z,100775.44
2022-10-18T14:26:15.983Z,100757.59
2022-10-18T14:28:58.996Z,100774.13
2022-10-18T14:31:27.174Z,100776.59
2022-10-18T14:33:57.900Z,100780.34
2022-10-18T14:36:34.841Z,100771.31
2022-10-18T14:39:04.855Z,100750.34
2022-10-18T14:41:40.860Z,100764.88
2022-10-18T14:44:21.372Z,100744.25
2022-10-18T14:46:48.049Z,100753.84
2022-10-18T14:49:22.127Z,100750.19
2022-10-18T14:51:53.364Z,100749.88
2022-10-18T14:54:30.758Z,100751.72
2022-10-18T14:57:00.724Z,100725.69
2022-10-18T14:59:30.476Z,100746.22
2022-10-18T15:02:10.156Z,100746.19
2022-10-18T15:04:37.411Z,100746.81
2022-10-18T15:07:08.736Z,100736.31
2022-10-18T15:09:37.483Z,100746.53
2022-10-18T15:12:07.452Z,100724.94
2022-10-18T15:14:37.125Z,100734.47
2022-10-18T15:17:13.302Z,100727.09
2022-10-18T15:19:42.570Z,100714.56
2022-10-18T15:22:31.601Z,100735.78
2022-10-18T15:25:17.958Z,100730.16
2022-10-18T15:27:57.336Z,100734.34
2022-10-18T15:30:39.357Z,100745.56
2022-10-18T15:33:10.079Z,100735.28
2022-10-18T15:35:39.048Z,100740.47
2022-10-18T15:38:24.531Z,100733.22
2022-10-18T15:40:51.672Z,100737.41
2022-10-18T15:43:24.586Z,100736.09
2022-10-18T15:45:58.870Z,100734.81
2022-10-18T15:48:31.014Z,100725.75
2022-10-18T15:51:02.243Z,100728.66
2022-10-18T15:53:37.359Z,100662.53
2022-10-18T15:56:06.120Z,100739.78
2022-10-18T15:58:44.871Z,100739.63
2022-10-18T16:01:21.562Z,100738.47
2022-10-18T16:03:49.723Z,100751.53
2022-10-18T16:06:18.313Z,100735.00
2022-10-18T16:08:50.998Z,100753.84
2022-10-18T16:11:21.268Z,100752.41
2022-10-18T16:13:48.726Z,100740.53
2022-10-18T16:16:27.045Z,100741.53
2022-10-18T16:18:54.917Z,100748.78
2022-10-18T16:21:21.662Z,100762.25
2022-10-18T16:23:49.838Z,100762.31
2022-10-18T16:26:18.553Z,100760.41
2022-10-18T16:28:46.186Z,100757.97
2022-10-18T16:31:21.909Z,100767.94
2022-10-18T16:33:49.923Z,100772.09
2022-10-18T16:36:22.218Z,100762.16
2022-10-18T16:38:50.422Z,100751.66
2022-10-18T16:41:17.598Z,100766.72
2022-10-18T16:43:46.295Z,100758.44
2022-10-18T16:46:27.562Z,100765.22
2022-10-18T16:48:55.005Z,100762.56
2022-10-18T16:51:22.033Z,100761.47
2022-10-18T16:53:48.852Z,100756.53
2022-10-18T16:56:21.463Z,100757.25
2022-10-18T16:58:49.072Z,100752.69
2022-10-18T17:01:18.170Z,100754.78
2022-10-18T17:03:46.141Z,100736.06
2022-10-18T17:06:19.128Z,100743.25
2022-10-18T17:08:46.398Z,100748.00
2022-10-18T17:11:14.561Z,100730.91
2022-10-18T17:13:41.938Z,100739.16
2022-10-18T17:16:19.105Z,100730.50
2022-10-18T17:18:45.869Z,100730.09
2022-10-18T17:21:13.629Z,100743.06
2022-10-18T17:23:40.449Z,100738.94
2022-10-18T17:26:27.349Z,100733.59
2022-10-18T17:28:55.756Z,100738.69
2022-10-18T17:31:23.151Z,100723.38
2022-10-18T17:33:50.092Z,100733.66
2022-10-18T17:36:17.080Z,100735.06
2022-10-18T17:38:44.015Z,100730.69
2022-10-18T17:41:11.754Z,100727.66
2022-10-18T17:46:14.360Z,100737.91
2022-10-18T17:48:41.962Z,100736.19
2022-10-18T17:51:10.676Z,100720.00
2022-10-18T17:53:37.626Z,100726.03
2022-10-18T17:56:06.006Z,100718.41
2022-10-18T17:58:32.751Z,100709.50
2022-10-18T18:01:20.200Z,100723.03
2022-10-18T18:03:49.979Z,100717.84
2022-10-18T18:06:19.894Z,100714.16
2022-10-18T18:08:48.766Z,100719.06
2022-10-18T18:11:16.424Z,100712.44
2022-10-18T18:13:43.152Z,100714.09
2022-10-18T18:16:19.301Z,100714.91
2022-10-18T18:18:47.341Z,100712.31
2022-10-18T18:21:14.468Z,100717.13
2022-10-18T18:23:41.691Z,100717.31
2022-10-18T18:26:08.749Z,100714.38
2022-10-18T18:28:38.590Z,100703.72
2022-10-18T18:31:12.291Z,100707.56
2022-10-18T18:33:39.174Z,100711.09
2022-10-18T18:36:07.090Z,100692.56
2022-10-18T18:38:36.139Z,100704.69
2022-10-18T18:41:04.123Z,100707.66
2022-10-18T18:43:30.911Z,100686.09
2022-10-18T18:45:57.679Z,100703.69
2022-10-18T18:48:26.588Z,100689.19
2022-10-18T18:50:53.573Z,100689.91
2022-10-18T18:53:20.479Z,100691.25
2022-10-18T18:55:48.458Z,100691.16
2022-10-18T18:58:15.254Z,100697.56
2022-10-18T19:00:44.456Z,100684.63
2022-10-18T19:03:12.261Z,100690.88
2022-10-18T19:05:39.266Z,100698.59
2022-10-18T19:08:06.401Z,100673.91
2022-10-18T19:10:33.157Z,100675.31
2022-10-18T19:12:59.958Z,100671.25
2022-10-18T19:15:26.931Z,100670.00
2022-10-18T19:17:55.830Z,100679.16
2022-10-18T19:20:22.738Z,100668.31
2022-10-18T19:22:49.538Z,100677.94
2022-10-18T19:25:16.476Z,100677.34
2022-10-18T19:27:43.202Z,100670.00
2022-10-18T19:30:11.635Z,100677.38
2022-10-18T19:32:38.432Z,100677.38
2022-10-18T19:35:05.937Z,100676.81
2022-10-18T19:37:32.974Z,100662.25
2022-10-18T19:40:00.165Z,100672.31
2022-10-18T19:42:31.513Z,100666.38
2022-10-18T19:44:58.528Z,100670.34
2022-10-18T19:47:25.253Z,100658.50
2022-10-18T19:49:53.857Z,100666.88
2022-10-18T19:52:20.594Z,100665.72
2022-10-18T19:54:48.951Z,100665.91
2022-10-18T19:57:15.847Z,100651.16
2022-10-18T19:59:42.623Z,100658.91
2022-10-18T20:02:13.776Z,100655.19
2022-10-18T20:04:40.502Z,100656.53
2022-10-18T20:07:07.383Z,100658.47
2022-10-18T20:09:34.273Z,100644.75
2022-10-18T20:12:01.010Z,100654.69
2022-10-18T20:14:27.875Z,100644.34
2022-10-18T20:16:54.593Z,100651.53
2022-10-18T20:19:21.303Z,100635.50
2022-10-18T20:21:48.114Z,100643.56
2022-10-18T20:24:14.871Z,100638.97
2022-10-18T20:26:43.592Z,100637.34
2022-10-18T20:29:10.525Z,100635.81
2022-10-18T20:31:39.162Z,100627.06
2022-10-18T20:34:11.626Z,100635.59
2022-10-18T20:36:38.897Z,100629.59
2022-10-18T20:39:07.050Z,100619.50
2022-10-18T20:41:36.563Z,100616.00
2022-10-18T20:44:07.168Z,100604.97
2022-10-18T20:46:35.983Z,100603.59
2022-10-18T20:49:04.101Z,100600.03
2022-10-18T20:51:30.975Z,100604.00
2022-10-18T20:53:57.842Z,100599.19
2022-10-18T20:56:27.295Z,100599.06
2022-10-18T20:58:56.830Z,100592.56
2022-10-18T21:01:27.888Z,100587.34
2022-10-18T21:03:56.504Z,100583.09
2022-10-18T21:06:31.788Z,100586.75
2022-10-18T21:09:00.605Z,100577.31
2022-10-18T21:11:29.285Z,100579.81
2022-10-18T21:14:04.920Z,100575.72
2022-10-18T21:16:33.521Z,100571.97
2022-10-18T21:19:08.700Z,100573.63
2022-10-18T21:21:35.438Z,100568.38
2022-10-18T21:24:05.492Z,100558.59
2022-10-18T21:26:35.225Z,100559.75
2022-10-18T21:29:02.732Z,100558.88
2022-10-18T21:31:31.854Z,100551.56
2022-10-18T21:34:01.300Z,100552.06
2022-10-18T21:36:31.596Z,100537.63
2022-10-18T21:38:58.666Z,100530.47
2022-10-18T21:41:25.675Z,100538.00
2022-10-18T21:43:54.914Z,100523.38
2022-10-18T21:46:23.281Z,100528.25
2022-10-18T21:48:52.297Z,100521.47
2022-10-18T21:51:21.144Z,100525.25
2022-10-18T21:53:49.775Z,100521.94
2022-10-18T21:56:19.312Z,100521.66
2022-10-18T21:58:46.399Z,100511.75
2022-10-18T22:01:14.615Z,100506.91
2022-10-18T22:03:41.504Z,100497.59
2022-10-18T22:06:14.043Z,100480.50
2022-10-18T22:08:42.919Z,100496.13
2022-10-18T22:11:10.428Z,100504.22
2022-10-18T22:13:41.280Z,100495.47
2022-10-18T22:16:09.590Z,100489.56
2022-10-18T22:18:36.342Z,100486.91
2022-10-18T22:21:08.140Z,100468.22
2022-10-18T22:23:43.624Z,100481.22
2022-10-18T22:26:30.951Z,100483.88
2022-10-18T22:29:06.416Z,100483.88
2022-10-18T22:31:36.253Z,100473.16
2022-10-18T22:34:06.930Z,100477.16
2022-10-18T22:36:34.679Z,100471.81
2022-10-18T22:39:01.819Z,100461.88
2022-10-18T22:41:28.643Z,100446.84
2022-10-18T22:43:57.341Z,100459.91
2022-10-18T22:46:26.525Z,100449.88
2022-10-18T22:48:53.691Z,100445.38
2022-10-18T22:51:20.391Z,100440.56
2022-10-18T22:53:47.321Z,100440.19
2022-10-18T22:56:18.240Z,100435.50
2022-10-18T22:58:45.027Z,100433.47
2022-10-18T23:01:14.418Z,100438.59
2022-10-18T23:03:41.407Z,100435.31
2022-10-18T23:06:20.939Z,100427.66
2022-10-18T23:08:47.721Z,100411.00
2022-10-18T23:11:15.180Z,100427.06
2022-10-18T23:13:41.893Z,100421.63
2022-10-18T23:16:08.669Z,100406.91
2022-10-18T23:18:35.474Z,100414.13
2022-10-18T23:21:08.634Z,100406.91
2022-10-18T23:23:36.830Z,100399.56
2022-10-18T23:26:15.575Z,100383.84
2022-10-18T23:28:45.660Z,100397.34
2022-10-18T23:31:18.247Z,100402.91
2022-10-18T23:33:45.847Z,100396.66
2022-10-18T23:36:12.842Z,100391.81
2022-10-18T23:38:40.636Z,100386.16
2022-10-18T23:41:09.243Z,100385.41
2022-10-18T23:43:36.472Z,100378.13
2022-10-18T23:46:03.964Z,100377.94
2022-10-18T23:48:30.686Z,100357.72
2022-10-18T23:50:57.508Z,100367.78
2022-10-18T23:53:24.309Z,100360.31
2022-10-18T23:56:09.380Z,100358.78
2022-10-18T23:58:37.491Z,100357.44
